sensor_id;sensor_type;location;lat;lon;timestamp;P1;durP1;ratioP1;P2;durP2;ratioP2
5833;SDS011;2943;48.012;10.968;2024-01-15T00:02:20;10.93;;;6.83;;
5833;SDS011;2943;48.012;10.968;2024-01-15T00:04:47;10.57;;;6.80;;
5833;SDS011;2943;48.012;10.968;2024-01-15T00:07:14;10.30;;;7.17;;
5833;SDS011;2943;48.012;10.968;2024-01-15T00:09:41;11.90;;;6.47;;
5833;SDS011;2943;48.012;10.968;2024-01-15T00:12:08;12.77;;;6.80;;
5833;SDS011;2943;48.012;10.968;2024-01-15T00:14:35;11.20;;;7.13;;
5833;SDS011;2943;48.012;10.968;2024-01-15T00:17:03;11.90;;;6.50;;
5833;SDS011;2943;48.012;10.968;2024-01-15T00:19:30;9.70;;;6.63;;
5833;SDS011;2943;48.012;10.968;2024-01-15T00:21:58;10.97;;;6.80;;
5833;SDS011;2943;48.012;10.968;2024-01-15T00:24:25;9.20;;;6.50;;
5833;SDS011;2943;48.012;10.968;2024-01-15T00:26:52;10.87;;;5.97;;
5833;SDS011;2943;48.012;10.968;2024-01-15T00:29:20;10.30;;;6.97;;
5833;SDS011;2943;48.012;10.968;2024-01-15T00:31:47;10.13;;;6.73;;
5833;SDS011;2943;48.012;10.968;2024-01-15T00:34:15;14.03;;;7.23;;
5833;SDS011;2943;48.012;10.968;2024-01-15T00:36:42;14.30;;;7.40;;
5833;SDS011;2943;48.012;10.968;2024-01-15T00:39:09;12.83;;;6.90;;
5833;SDS011;2943;48.012;10.968;2024-01-15T00:41:36;11.37;;;6.50;;
5833;SDS011;2943;48.012;10.968;2024-01-15T00:44:04;11.93;;;6.60;;
5833;SDS011;2943;48.012;10.968;2024-01-15T00:46:32;12.00;;;6.80;;
5833;SDS011;2943;48.012;10.968;2024-01-15T00:48:59;14.37;;;7.03;;
5833;SDS011;2943;48.012;10.968;2024-01-15T00:51:27;13.20;;;6.53;;
5833;SDS011;2943;48.012;10.968;2024-01-15T00:53:54;16.63;;;7.43;;
5833;SDS011;2943;48.012;10.968;2024-01-15T00:56:21;15.03;;;8.07;;
5833;SDS011;2943;48.012;10.968;2024-01-15T00:58:47;13.70;;;7.43;;
5833;SDS011;2943;48.012;10.968;2024-01-15T01:01:14;15.83;;;8.23;;
5833;SDS011;2943;48.012;10.968;2024-01-15T01:03:41;16.83;;;8.60;;
5833;SDS011;2943;48.012;10.968;2024-01-15T01:06:08;21.00;;;8.20;;
5833;SDS011;2943;48.012;10.968;2024-01-15T01:08:36;22.97;;;10.03;;
5833;SDS011;2943;48.012;10.968;2024-01-15T01:11:03;16.57;;;9.47;;
5833;SDS011;2943;48.012;10.968;2024-01-15T01:13:31;17.80;;;10.27;;
5833;SDS011;2943;48.012;10.968;2024-01-15T01:15:58;22.73;;;10.83;;
5833;SDS011;2943;48.012;10.968;2024-01-15T01:18:25;23.27;;;10.63;;
5833;SDS011;2943;48.012;10.968;2024-01-15T01:20:52;21.10;;;10.63;;
5833;SDS011;2943;48.012;10.968;2024-01-15T01:23:19;25.27;;;12.03;;
5833;SDS011;2943;48.012;10.968;2024-01-15T01:25:47;19.90;;;10.50;;
5833;SDS011;2943;48.012;10.968;2024-01-15T01:28:14;22.30;;;13.07;;
5833;SDS011;2943;48.012;10.968;2024-01-15T01:30:41;26.17;;;12.53;;
5833;SDS011;2943;48.012;10.968;2024-01-15T01:33:08;25.23;;;12.20;;
5833;SDS011;2943;48.012;10.968;2024-01-15T01:35:35;23.50;;;12.43;;
5833;SDS011;2943;48.012;10.968;2024-01-15T01:38:02;24.60;;;14.20;;
5833;SDS011;2943;48.012;10.968;2024-01-15T01:40:29;28.70;;;15.60;;
5833;SDS011;2943;48.012;10.968;2024-01-15T01:43:00;25.80;;;11.77;;
5833;SDS011;2943;48.012;10.968;2024-01-15T01:45:28;24.33;;;12.83;;
5833;SDS011;2943;48.012;10.968;2024-01-15T01:47:55;34.27;;;13.57;;
5833;SDS011;2943;48.012;10.968;2024-01-15T01:50:22;31.00;;;14.30;;
5833;SDS011;2943;48.012;10.968;2024-01-15T01:52:49;27.90;;;13.50;;
5833;SDS011;2943;48.012;10.968;2024-01-15T01:55:16;24.30;;;13.17;;
5833;SDS011;2943;48.012;10.968;2024-01-15T01:57:45;32.17;;;13.60;;
5833;SDS011;2943;48.012;10.968;2024-01-15T02:00:16;27.47;;;14.10;;
5833;SDS011;2943;48.012;10.968;2024-01-15T02:02:43;24.47;;;13.20;;
5833;SDS011;2943;48.012;10.968;2024-01-15T02:05:11;25.70;;;13.90;;
5833;SDS011;2943;48.012;10.968;2024-01-15T02:07:40;25.40;;;13.60;;
5833;SDS011;2943;48.012;10.968;2024-01-15T02:10:07;27.73;;;13.97;;
5833;SDS011;2943;48.012;10.968;2024-01-15T02:12:35;31.77;;;16.03;;
5833;SDS011;2943;48.012;10.968;2024-01-15T02:15:03;29.03;;;14.43;;
5833;SDS011;2943;48.012;10.968;2024-01-15T02:17:32;30.37;;;14.03;;
5833;SDS011;2943;48.012;10.968;2024-01-15T02:19:59;29.30;;;14.13;;
5833;SDS011;2943;48.012;10.968;2024-01-15T02:22:28;25.93;;;13.13;;
5833;SDS011;2943;48.012;10.968;2024-01-15T02:24:56;29.07;;;14.57;;
5833;SDS011;2943;48.012;10.968;2024-01-15T02:27:23;26.63;;;13.90;;
5833;SDS011;2943;48.012;10.968;2024-01-15T02:29:50;28.30;;;13.27;;
5833;SDS011;2943;48.012;10.968;2024-01-15T02:32:17;24.00;;;12.23;;
5833;SDS011;2943;48.012;10.968;2024-01-15T02:34:44;28.80;;;13.70;;
5833;SDS011;2943;48.012;10.968;2024-01-15T02:37:11;25.70;;;13.50;;
5833;SDS011;2943;48.012;10.968;2024-01-15T02:39:38;24.60;;;11.83;;
5833;SDS011;2943;48.012;10.968;2024-01-15T02:42:06;25.50;;;13.70;;
5833;SDS011;2943;48.012;10.968;2024-01-15T02:44:33;25.00;;;12.20;;
5833;SDS011;2943;48.012;10.968;2024-01-15T02:47:00;22.63;;;11.13;;
5833;SDS011;2943;48.012;10.968;2024-01-15T02:49:27;21.77;;;11.13;;
5833;SDS011;2943;48.012;10.968;2024-01-15T02:51:54;25.30;;;12.83;;
5833;SDS011;2943;48.012;10.968;2024-01-15T02:54:21;25.63;;;10.57;;
5833;SDS011;2943;48.012;10.968;2024-01-15T02:56:48;20.67;;;10.70;;
5833;SDS011;2943;48.012;10.968;2024-01-15T02:59:16;21.50;;;11.20;;
5833;SDS011;2943;48.012;10.968;2024-01-15T03:01:44;24.20;;;11.70;;
5833;SDS011;2943;48.012;10.968;2024-01-15T03:04:11;31.97;;;12.17;;
5833;SDS011;2943;48.012;10.968;2024-01-15T03:06:37;20.73;;;10.23;;
5833;SDS011;2943;48.012;10.968;2024-01-15T03:09:04;23.30;;;11.00;;
5833;SDS011;2943;48.012;10.968;2024-01-15T03:11:36;24.93;;;11.40;;
5833;SDS011;2943;48.012;10.968;2024-01-15T03:14:03;21.23;;;10.40;;
5833;SDS011;2943;48.012;10.968;2024-01-15T03:16:31;26.23;;;12.10;;
5833;SDS011;2943;48.012;10.968;2024-01-15T03:18:58;19.03;;;10.40;;
5833;SDS011;2943;48.012;10.968;2024-01-15T03:21:26;19.60;;;9.67;;
5833;SDS011;2943;48.012;10.968;2024-01-15T03:23:53;21.10;;;9.97;;
5833;SDS011;2943;48.012;10.968;2024-01-15T03:26:20;18.20;;;9.83;;
5833;SDS011;2943;48.012;10.968;2024-01-15T03:28:46;19.93;;;9.87;;
5833;SDS011;2943;48.012;10.968;2024-01-15T03:31:13;20.27;;;10.40;;
5833;SDS011;2943;48.012;10.968;2024-01-15T03:33:41;19.43;;;9.37;;
5833;SDS011;2943;48.012;10.968;2024-01-15T03:36:08;18.87;;;10.50;;
5833;SDS011;2943;48.012;10.968;2024-01-15T03:38:38;19.80;;;10.20;;
5833;SDS011;2943;48.012;10.968;2024-01-15T03:41:06;14.73;;;9.63;;
5833;SDS011;2943;48.012;10.968;2024-01-15T03:43:34;19.47;;;10.83;;
5833;SDS011;2943;48.012;10.968;2024-01-15T03:46:00;19.13;;;10.03;;
5833;SDS011;2943;48.012;10.968;2024-01-15T03:48:29;19.07;;;10.30;;
5833;SDS011;2943;48.012;10.968;2024-01-15T03:50:57;18.00;;;9.70;;
5833;SDS011;2943;48.012;10.968;2024-01-15T03:53:24;18.50;;;8.90;;
5833;SDS011;2943;48.012;10.968;2024-01-15T03:55:51;13.37;;;7.77;;
5833;SDS011;2943;48.012;10.968;2024-01-15T03:58:18;15.70;;;8.33;;
5833;SDS011;2943;48.012;10.968;2024-01-15T04:00:45;20.50;;;8.87;;
5833;SDS011;2943;48.012;10.968;2024-01-15T04:03:12;18.03;;;9.63;;
5833;SDS011;2943;48.012;10.968;2024-01-15T04:05:39;16.40;;;8.30;;
5833;SDS011;2943;48.012;10.968;2024-01-15T04:08:07;15.10;;;8.13;;
5833;SDS011;2943;48.012;10.968;2024-01-15T04:10:33;17.73;;;9.10;;
5833;SDS011;2943;48.012;10.968;2024-01-15T04:13:00;15.73;;;8.70;;
5833;SDS011;2943;48.012;10.968;2024-01-15T04:15:28;18.00;;;8.80;;
5833;SDS011;2943;48.012;10.968;2024-01-15T04:17:55;15.07;;;8.17;;
5833;SDS011;2943;48.012;10.968;2024-01-15T04:20:22;18.30;;;8.67;;
5833;SDS011;2943;48.012;10.968;2024-01-15T04:22:49;19.10;;;8.93;;
5833;SDS011;2943;48.012;10.968;2024-01-15T04:25:17;16.83;;;8.70;;
5833;SDS011;2943;48.012;10.968;2024-01-15T04:27:44;14.77;;;7.60;;
5833;SDS011;2943;48.012;10.968;2024-01-15T04:30:11;19.40;;;9.17;;
5833;SDS011;2943;48.012;10.968;2024-01-15T04:32:38;19.03;;;10.10;;
5833;SDS011;2943;48.012;10.968;2024-01-15T04:35:05;18.70;;;9.00;;
5833;SDS011;2943;48.012;10.968;2024-01-15T04:37:32;13.90;;;7.43;;
5833;SDS011;2943;48.012;10.968;2024-01-15T04:39:59;16.13;;;9.03;;
5833;SDS011;2943;48.012;10.968;2024-01-15T04:42:27;15.87;;;8.00;;
5833;SDS011;2943;48.012;10.968;2024-01-15T04:44:54;16.73;;;9.23;;
5833;SDS011;2943;48.012;10.968;2024-01-15T04:47:21;13.77;;;8.47;;
5833;SDS011;2943;48.012;10.968;2024-01-15T04:49:49;17.80;;;9.10;;
5833;SDS011;2943;48.012;10.968;2024-01-15T04:52:16;19.80;;;9.87;;
5833;SDS011;2943;48.012;10.968;2024-01-15T04:54:43;18.47;;;8.93;;
5833;SDS011;2943;48.012;10.968;2024-01-15T04:57:09;17.37;;;8.40;;
5833;SDS011;2943;48.012;10.968;2024-01-15T04:59:38;16.97;;;8.40;;
5833;SDS011;2943;48.012;10.968;2024-01-15T05:02:05;15.87;;;8.70;;
5833;SDS011;2943;48.012;10.968;2024-01-15T05:04:33;16.80;;;9.53;;
5833;SDS011;2943;48.012;10.968;2024-01-15T05:06:59;20.10;;;8.03;;
5833;SDS011;2943;48.012;10.968;2024-01-15T05:09:26;20.10;;;9.70;;
5833;SDS011;2943;48.012;10.968;2024-01-15T05:11:53;19.37;;;8.73;;
5833;SDS011;2943;48.012;10.968;2024-01-15T05:14:20;16.37;;;8.83;;
5833;SDS011;2943;48.012;10.968;2024-01-15T05:16:48;16.67;;;8.70;;
5833;SDS011;2943;48.012;10.968;2024-01-15T05:19:16;21.90;;;9.23;;
5833;SDS011;2943;48.012;10.968;2024-01-15T05:21:45;16.47;;;9.40;;
5833;SDS011;2943;48.012;10.968;2024-01-15T05:24:11;16.97;;;8.30;;
5833;SDS011;2943;48.012;10.968;2024-01-15T05:26:38;18.37;;;8.63;;
5833;SDS011;2943;48.012;10.968;2024-01-15T05:29:05;17.30;;;9.40;;
5833;SDS011;2943;48.012;10.968;2024-01-15T05:31:32;14.73;;;8.77;;
5833;SDS011;2943;48.012;10.968;2024-01-15T05:34:00;16.37;;;8.53;;
5833;SDS011;2943;48.012;10.968;2024-01-15T05:36:27;13.47;;;8.10;;
5833;SDS011;2943;48.012;10.968;2024-01-15T05:38:54;16.30;;;8.70;;
5833;SDS011;2943;48.012;10.968;2024-01-15T05:41:21;20.97;;;8.73;;
5833;SDS011;2943;48.012;10.968;2024-01-15T05:43:47;13.73;;;7.87;;
5833;SDS011;2943;48.012;10.968;2024-01-15T05:46:14;16.83;;;9.00;;
5833;SDS011;2943;48.012;10.968;2024-01-15T05:48:42;17.00;;;8.40;;
5833;SDS011;2943;48.012;10.968;2024-01-15T05:51:11;17.60;;;8.40;;
5833;SDS011;2943;48.012;10.968;2024-01-15T05:53:38;17.40;;;9.27;;
5833;SDS011;2943;48.012;10.968;2024-01-15T05:56:07;16.90;;;7.83;;
5833;SDS011;2943;48.012;10.968;2024-01-15T05:58:35;15.33;;;7.97;;
5833;SDS011;2943;48.012;10.968;2024-01-15T06:01:02;13.63;;;8.13;;
5833;SDS011;2943;48.012;10.968;2024-01-15T06:03:30;16.23;;;8.40;;
5833;SDS011;2943;48.012;10.968;2024-01-15T06:05:56;13.93;;;8.40;;
5833;SDS011;2943;48.012;10.968;2024-01-15T06:08:25;13.00;;;8.17;;
5833;SDS011;2943;48.012;10.968;2024-01-15T06:10:52;12.90;;;7.50;;
5833;SDS011;2943;48.012;10.968;2024-01-15T06:13:19;15.00;;;8.17;;
5833;SDS011;2943;48.012;10.968;2024-01-15T06:15:46;18.67;;;8.87;;
5833;SDS011;2943;48.012;10.968;2024-01-15T06:18:13;13.90;;;7.20;;
5833;SDS011;2943;48.012;10.968;2024-01-15T06:20:40;11.67;;;7.27;;
5833;SDS011;2943;48.012;10.968;2024-01-15T06:23:07;14.43;;;8.30;;
5833;SDS011;2943;48.012;10.968;2024-01-15T06:25:35;15.83;;;7.20;;
5833;SDS011;2943;48.012;10.968;2024-01-15T06:28:02;15.67;;;7.77;;
5833;SDS011;2943;48.012;10.968;2024-01-15T06:30:30;14.07;;;8.03;;
5833;SDS011;2943;48.012;10.968;2024-01-15T06:32:57;13.27;;;8.00;;
5833;SDS011;2943;48.012;10.968;2024-01-15T06:35:24;12.50;;;7.50;;
5833;SDS011;2943;48.012;10.968;2024-01-15T06:37:52;13.70;;;7.73;;
5833;SDS011;2943;48.012;10.968;2024-01-15T06:40:18;15.70;;;8.27;;
5833;SDS011;2943;48.012;10.968;2024-01-15T06:42:47;13.27;;;7.03;;
5833;SDS011;2943;48.012;10.968;2024-01-15T06:45:14;16.43;;;7.50;;
5833;SDS011;2943;48.012;10.968;2024-01-15T06:47:40;15.17;;;7.67;;
5833;SDS011;2943;48.012;10.968;2024-01-15T06:50:07;13.43;;;7.27;;
5833;SDS011;2943;48.012;10.968;2024-01-15T06:52:35;12.87;;;7.00;;
5833;SDS011;2943;48.012;10.968;2024-01-15T06:55:01;14.17;;;8.40;;
5833;SDS011;2943;48.012;10.968;2024-01-15T06:57:29;13.47;;;7.30;;
5833;SDS011;2943;48.012;10.968;2024-01-15T06:59:57;15.23;;;7.07;;
5833;SDS011;2943;48.012;10.968;2024-01-15T07:02:24;14.23;;;6.87;;
5833;SDS011;2943;48.012;10.968;2024-01-15T07:04:51;12.70;;;7.37;;
5833;SDS011;2943;48.012;10.968;2024-01-15T07:07:18;12.30;;;7.70;;
5833;SDS011;2943;48.012;10.968;2024-01-15T07:09:45;15.93;;;7.83;;
5833;SDS011;2943;48.012;10.968;2024-01-15T07:12:12;16.67;;;9.10;;
5833;SDS011;2943;48.012;10.968;2024-01-15T07:14:39;16.00;;;6.70;;
5833;SDS011;2943;48.012;10.968;2024-01-15T07:17:07;10.20;;;6.90;;
5833;SDS011;2943;48.012;10.968;2024-01-15T07:19:33;16.23;;;7.70;;
5833;SDS011;2943;48.012;10.968;2024-01-15T07:22:00;13.77;;;7.27;;
5833;SDS011;2943;48.012;10.968;2024-01-15T07:24:27;10.90;;;6.10;;
5833;SDS011;2943;48.012;10.968;2024-01-15T07:26:54;12.30;;;7.17;;
5833;SDS011;2943;48.012;10.968;2024-01-15T07:29:21;12.53;;;7.73;;
5833;SDS011;2943;48.012;10.968;2024-01-15T07:31:48;12.00;;;6.60;;
5833;SDS011;2943;48.012;10.968;2024-01-15T07:34:17;12.40;;;7.17;;
5833;SDS011;2943;48.012;10.968;2024-01-15T07:36:44;11.13;;;6.67;;
5833;SDS011;2943;48.012;10.968;2024-01-15T07:39:11;12.83;;;6.57;;
5833;SDS011;2943;48.012;10.968;2024-01-15T07:41:38;11.83;;;7.07;;
5833;SDS011;2943;48.012;10.968;2024-01-15T07:44:06;10.60;;;6.60;;
5833;SDS011;2943;48.012;10.968;2024-01-15T07:46:34;13.27;;;6.70;;
5833;SDS011;2943;48.012;10.968;2024-01-15T07:49:01;12.97;;;7.13;;
5833;SDS011;2943;48.012;10.968;2024-01-15T07:51:31;12.20;;;6.90;;
5833;SDS011;2943;48.012;10.968;2024-01-15T07:53:58;13.73;;;8.17;;
5833;SDS011;2943;48.012;10.968;2024-01-15T07:56:25;15.93;;;7.80;;
5833;SDS011;2943;48.012;10.968;2024-01-15T07:58:53;13.93;;;7.43;;
5833;SDS011;2943;48.012;10.968;2024-01-15T08:01:20;13.43;;;7.17;;
5833;SDS011;2943;48.012;10.968;2024-01-15T08:03:47;11.00;;;6.47;;
5833;SDS011;2943;48.012;10.968;2024-01-15T08:06:14;15.90;;;8.30;;
5833;SDS011;2943;48.012;10.968;2024-01-15T08:08:42;16.13;;;7.93;;
5833;SDS011;2943;48.012;10.968;2024-01-15T08:11:10;14.97;;;9.00;;
5833;SDS011;2943;48.012;10.968;2024-01-15T08:13:37;11.40;;;6.10;;
5833;SDS011;2943;48.012;10.968;2024-01-15T08:16:04;12.83;;;7.83;;
5833;SDS011;2943;48.012;10.968;2024-01-15T08:18:32;14.73;;;8.27;;
5833;SDS011;2943;48.012;10.968;2024-01-15T08:20:59;13.47;;;7.50;;
5833;SDS011;2943;48.012;10.968;2024-01-15T08:23:26;16.30;;;7.97;;
5833;SDS011;2943;48.012;10.968;2024-01-15T08:25:57;13.70;;;7.50;;
5833;SDS011;2943;48.012;10.968;2024-01-15T08:28:24;12.60;;;7.30;;
5833;SDS011;2943;48.012;10.968;2024-01-15T08:30:51;15.30;;;7.20;;
5833;SDS011;2943;48.012;10.968;2024-01-15T08:33:18;10.47;;;6.27;;
5833;SDS011;2943;48.012;10.968;2024-01-15T08:35:45;13.00;;;7.20;;
5833;SDS011;2943;48.012;10.968;2024-01-15T08:38:14;16.53;;;8.40;;
5833;SDS011;2943;48.012;10.968;2024-01-15T08:40:47;14.00;;;8.30;;
5833;SDS011;2943;48.012;10.968;2024-01-15T08:43:37;13.80;;;7.83;;
5833;SDS011;2943;48.012;10.968;2024-01-15T08:46:17;11.57;;;6.93;;
5833;SDS011;2943;48.012;10.968;2024-01-15T08:48:49;13.40;;;7.30;;
5833;SDS011;2943;48.012;10.968;2024-01-15T08:51:24;16.07;;;8.60;;
5833;SDS011;2943;48.012;10.968;2024-01-15T08:54:05;15.90;;;7.67;;
5833;SDS011;2943;48.012;10.968;2024-01-15T08:57:07;15.47;;;7.00;;
5833;SDS011;2943;48.012;10.968;2024-01-15T08:59:58;13.20;;;7.80;;
5833;SDS011;2943;48.012;10.968;2024-01-15T09:02:44;12.83;;;6.93;;
5833;SDS011;2943;48.012;10.968;2024-01-15T09:05:16;11.37;;;7.10;;
5833;SDS011;2943;48.012;10.968;2024-01-15T09:07:50;15.10;;;7.83;;
5833;SDS011;2943;48.012;10.968;2024-01-15T09:10:18;10.43;;;6.20;;
5833;SDS011;2943;48.012;10.968;2024-01-15T09:12:45;14.03;;;6.60;;
5833;SDS011;2943;48.012;10.968;2024-01-15T09:15:13;11.20;;;6.23;;
5833;SDS011;2943;48.012;10.968;2024-01-15T09:17:40;14.63;;;7.20;;
5833;SDS011;2943;48.012;10.968;2024-01-15T09:20:08;17.00;;;6.60;;
5833;SDS011;2943;48.012;10.968;2024-01-15T09:22:35;15.93;;;7.00;;
5833;SDS011;2943;48.012;10.968;2024-01-15T09:25:04;10.93;;;6.97;;
5833;SDS011;2943;48.012;10.968;2024-01-15T09:27:31;8.40;;;5.90;;
5833;SDS011;2943;48.012;10.968;2024-01-15T09:30:01;13.40;;;6.40;;
5833;SDS011;2943;48.012;10.968;2024-01-15T09:32:31;13.00;;;6.47;;
5833;SDS011;2943;48.012;10.968;2024-01-15T09:34:59;9.10;;;6.20;;
5833;SDS011;2943;48.012;10.968;2024-01-15T09:37:26;12.40;;;6.20;;
5833;SDS011;2943;48.012;10.968;2024-01-15T09:39:53;11.47;;;6.00;;
5833;SDS011;2943;48.012;10.968;2024-01-15T09:42:20;10.93;;;6.33;;
5833;SDS011;2943;48.012;10.968;2024-01-15T09:44:50;8.07;;;5.50;;
5833;SDS011;2943;48.012;10.968;2024-01-15T09:47:18;9.20;;;5.63;;
5833;SDS011;2943;48.012;10.968;2024-01-15T09:49:48;12.77;;;6.50;;
5833;SDS011;2943;48.012;10.968;2024-01-15T09:52:15;7.93;;;5.17;;
5833;SDS011;2943;48.012;10.968;2024-01-15T09:54:44;12.23;;;5.63;;
5833;SDS011;2943;48.012;10.968;2024-01-15T09:57:12;8.83;;;5.83;;
5833;SDS011;2943;48.012;10.968;2024-01-15T09:59:39;10.83;;;6.50;;
5833;SDS011;2943;48.012;10.968;2024-01-15T10:02:09;10.47;;;6.20;;
5833;SDS011;2943;48.012;10.968;2024-01-15T10:04:40;11.07;;;6.40;;
5833;SDS011;2943;48.012;10.968;2024-01-15T10:07:10;13.07;;;6.47;;
5833;SDS011;2943;48.012;10.968;2024-01-15T10:09:42;11.83;;;6.07;;
5833;SDS011;2943;48.012;10.968;2024-01-15T10:12:09;8.70;;;5.20;;
5833;SDS011;2943;48.012;10.968;2024-01-15T10:14:37;12.07;;;6.97;;
5833;SDS011;2943;48.012;10.968;2024-01-15T10:17:11;9.10;;;5.83;;
5833;SDS011;2943;48.012;10.968;2024-01-15T10:19:40;8.27;;;5.20;;
5833;SDS011;2943;48.012;10.968;2024-01-15T10:22:07;10.40;;;4.93;;
5833;SDS011;2943;48.012;10.968;2024-01-15T10:24:36;8.47;;;5.43;;
5833;SDS011;2943;48.012;10.968;2024-01-15T10:27:06;10.13;;;5.80;;
5833;SDS011;2943;48.012;10.968;2024-01-15T10:29:34;7.43;;;4.90;;
5833;SDS011;2943;48.012;10.968;2024-01-15T10:32:02;7.30;;;5.00;;
5833;SDS011;2943;48.012;10.968;2024-01-15T10:34:33;9.37;;;5.60;;
5833;SDS011;2943;48.012;10.968;2024-01-15T10:37:04;7.67;;;4.60;;
5833;SDS011;2943;48.012;10.968;2024-01-15T10:39:33;6.83;;;4.90;;
5833;SDS011;2943;48.012;10.968;2024-01-15T10:42:00;7.03;;;4.83;;
5833;SDS011;2943;48.012;10.968;2024-01-15T10:44:28;6.13;;;4.30;;
5833;SDS011;2943;48.012;10.968;2024-01-15T10:46:56;8.30;;;4.70;;
5833;SDS011;2943;48.012;10.968;2024-01-15T10:49:24;8.83;;;4.80;;
5833;SDS011;2943;48.012;10.968;2024-01-15T10:51:53;9.40;;;4.77;;
5833;SDS011;2943;48.012;10.968;2024-01-15T10:54:22;4.97;;;3.90;;
5833;SDS011;2943;48.012;10.968;2024-01-15T10:56:50;6.60;;;4.93;;
5833;SDS011;2943;48.012;10.968;2024-01-15T10:59:20;7.17;;;4.77;;
5833;SDS011;2943;48.012;10.968;2024-01-15T11:01:48;8.57;;;5.27;;
5833;SDS011;2943;48.012;10.968;2024-01-15T11:04:18;8.20;;;4.83;;
5833;SDS011;2943;48.012;10.968;2024-01-15T11:06:49;7.90;;;4.47;;
5833;SDS011;2943;48.012;10.968;2024-01-15T11:09:18;6.57;;;4.20;;
5833;SDS011;2943;48.012;10.968;2024-01-15T11:11:46;7.03;;;4.40;;
5833;SDS011;2943;48.012;10.968;2024-01-15T11:17:08;6.67;;;4.53;;
5833;SDS011;2943;48.012;10.968;2024-01-15T11:19:37;7.67;;;4.47;;
5833;SDS011;2943;48.012;10.968;2024-01-15T11:22:06;4.73;;;3.90;;
5833;SDS011;2943;48.012;10.968;2024-01-15T11:24:38;4.87;;;3.63;;
5833;SDS011;2943;48.012;10.968;2024-01-15T11:27:06;5.13;;;3.50;;
5833;SDS011;2943;48.012;10.968;2024-01-15T11:29:34;5.03;;;4.00;;
5833;SDS011;2943;48.012;10.968;2024-01-15T11:32:04;4.07;;;3.17;;
5833;SDS011;2943;48.012;10.968;2024-01-15T11:34:54;4.17;;;3.33;;
5833;SDS011;2943;48.012;10.968;2024-01-15T11:37:27;9.13;;;5.07;;
5833;SDS011;2943;48.012;10.968;2024-01-15T11:39:55;6.30;;;3.80;;
5833;SDS011;2943;48.012;10.968;2024-01-15T11:42:29;8.20;;;4.23;;
5833;SDS011;2943;48.012;10.968;2024-01-15T11:44:56;4.47;;;3.60;;
5833;SDS011;2943;48.012;10.968;2024-01-15T11:47:46;7.47;;;4.03;;
5833;SDS011;2943;48.012;10.968;2024-01-15T11:50:39;5.50;;;4.40;;
5833;SDS011;2943;48.012;10.968;2024-01-15T11:53:11;7.97;;;4.97;;
5833;SDS011;2943;48.012;10.968;2024-01-15T11:55:43;10.03;;;5.30;;
5833;SDS011;2943;48.012;10.968;2024-01-15T11:58:13;10.50;;;5.50;;
5833;SDS011;2943;48.012;10.968;2024-01-15T12:00:42;8.03;;;4.73;;
5833;SDS011;2943;48.012;10.968;2024-01-15T12:03:11;12.73;;;7.23;;
5833;SDS011;2943;48.012;10.968;2024-01-15T12:05:39;9.00;;;5.43;;
5833;SDS011;2943;48.012;10.968;2024-01-15T12:08:07;9.30;;;6.07;;
5833;SDS011;2943;48.012;10.968;2024-01-15T12:10:36;8.73;;;4.77;;
5833;SDS011;2943;48.012;10.968;2024-01-15T12:13:04;10.87;;;6.60;;
5833;SDS011;2943;48.012;10.968;2024-01-15T12:15:34;16.90;;;5.17;;
5833;SDS011;2943;48.012;10.968;2024-01-15T12:18:01;7.03;;;4.97;;
5833;SDS011;2943;48.012;10.968;2024-01-15T12:20:31;9.37;;;5.73;;
5833;SDS011;2943;48.012;10.968;2024-01-15T12:22:59;10.70;;;6.10;;
5833;SDS011;2943;48.012;10.968;2024-01-15T12:25:26;9.67;;;5.60;;
5833;SDS011;2943;48.012;10.968;2024-01-15T12:27:55;8.13;;;6.03;;
5833;SDS011;2943;48.012;10.968;2024-01-15T12:30:25;8.40;;;5.47;;
5833;SDS011;2943;48.012;10.968;2024-01-15T12:32:56;10.83;;;5.47;;
5833;SDS011;2943;48.012;10.968;2024-01-15T12:35:23;9.63;;;6.53;;
5833;SDS011;2943;48.012;10.968;2024-01-15T12:37:53;8.87;;;5.70;;
5833;SDS011;2943;48.012;10.968;2024-01-15T12:40:21;11.90;;;5.87;;
5833;SDS011;2943;48.012;10.968;2024-01-15T12:42:49;12.40;;;6.87;;
5833;SDS011;2943;48.012;10.968;2024-01-15T12:45:17;17.93;;;5.40;;
5833;SDS011;2943;48.012;10.968;2024-01-15T12:47:44;9.20;;;5.13;;
5833;SDS011;2943;48.012;10.968;2024-01-15T12:50:12;11.90;;;6.00;;
5833;SDS011;2943;48.012;10.968;2024-01-15T12:52:40;9.10;;;5.27;;
5833;SDS011;2943;48.012;10.968;2024-01-15T12:55:09;10.00;;;5.33;;
5833;SDS011;2943;48.012;10.968;2024-01-15T12:57:36;9.10;;;5.93;;
5833;SDS011;2943;48.012;10.968;2024-01-15T13:00:04;11.70;;;5.40;;
5833;SDS011;2943;48.012;10.968;2024-01-15T13:02:37;7.93;;;5.70;;
5833;SDS011;2943;48.012;10.968;2024-01-15T13:05:04;8.40;;;4.90;;
5833;SDS011;2943;48.012;10.968;2024-01-15T13:07:33;7.60;;;5.23;;
5833;SDS011;2943;48.012;10.968;2024-01-15T13:10:00;6.40;;;4.80;;
5833;SDS011;2943;48.012;10.968;2024-01-15T13:12:29;6.83;;;4.40;;
5833;SDS011;2943;48.012;10.968;2024-01-15T13:14:57;6.87;;;4.60;;
5833;SDS011;2943;48.012;10.968;2024-01-15T13:17:24;6.60;;;4.90;;
5833;SDS011;2943;48.012;10.968;2024-01-15T13:19:51;8.77;;;5.60;;
5833;SDS011;2943;48.012;10.968;2024-01-15T13:22:18;5.97;;;4.20;;
5833;SDS011;2943;48.012;10.968;2024-01-15T13:24:45;8.63;;;5.60;;
5833;SDS011;2943;48.012;10.968;2024-01-15T13:27:13;9.00;;;4.93;;
5833;SDS011;2943;48.012;10.968;2024-01-15T13:29:43;6.70;;;5.20;;
5833;SDS011;2943;48.012;10.968;2024-01-15T13:32:11;7.10;;;4.80;;
5833;SDS011;2943;48.012;10.968;2024-01-15T13:34:44;7.80;;;4.30;;
5833;SDS011;2943;48.012;10.968;2024-01-15T13:37:11;6.30;;;4.27;;
5833;SDS011;2943;48.012;10.968;2024-01-15T13:39:38;9.67;;;5.10;;
5833;SDS011;2943;48.012;10.968;2024-01-15T13:42:05;6.67;;;4.57;;
5833;SDS011;2943;48.012;10.968;2024-01-15T13:44:32;6.23;;;4.37;;
5833;SDS011;2943;48.012;10.968;2024-01-15T13:47:00;6.17;;;3.87;;
5833;SDS011;2943;48.012;10.968;2024-01-15T13:49:28;6.23;;;4.53;;
5833;SDS011;2943;48.012;10.968;2024-01-15T13:51:56;6.53;;;4.60;;
5833;SDS011;2943;48.012;10.968;2024-01-15T13:54:24;7.90;;;4.70;;
5833;SDS011;2943;48.012;10.968;2024-01-15T13:56:51;10.07;;;4.50;;
5833;SDS011;2943;48.012;10.968;2024-01-15T13:59:17;8.50;;;4.50;;
5833;SDS011;2943;48.012;10.968;2024-01-15T14:01:44;7.70;;;5.30;;
5833;SDS011;2943;48.012;10.968;2024-01-15T14:04:13;6.00;;;4.70;;
5833;SDS011;2943;48.012;10.968;2024-01-15T14:06:40;7.40;;;5.33;;
5833;SDS011;2943;48.012;10.968;2024-01-15T14:09:09;8.00;;;4.77;;
5833;SDS011;2943;48.012;10.968;2024-01-15T14:11:36;8.77;;;5.00;;
5833;SDS011;2943;48.012;10.968;2024-01-15T14:14:07;9.40;;;5.10;;
5833;SDS011;2943;48.012;10.968;2024-01-15T14:16:47;7.00;;;4.80;;
5833;SDS011;2943;48.012;10.968;2024-01-15T14:19:17;5.83;;;4.60;;
5833;SDS011;2943;48.012;10.968;2024-01-15T14:21:45;6.77;;;5.07;;
5833;SDS011;2943;48.012;10.968;2024-01-15T14:24:12;6.63;;;4.77;;
5833;SDS011;2943;48.012;10.968;2024-01-15T14:26:39;6.83;;;4.50;;
5833;SDS011;2943;48.012;10.968;2024-01-15T14:29:06;8.87;;;5.53;;
5833;SDS011;2943;48.012;10.968;2024-01-15T14:31:34;7.23;;;4.63;;
5833;SDS011;2943;48.012;10.968;2024-01-15T14:34:01;11.47;;;6.60;;
5833;SDS011;2943;48.012;10.968;2024-01-15T14:36:30;6.10;;;4.87;;
5833;SDS011;2943;48.012;10.968;2024-01-15T14:38:57;6.80;;;5.20;;
5833;SDS011;2943;48.012;10.968;2024-01-15T14:41:26;6.80;;;5.30;;
5833;SDS011;2943;48.012;10.968;2024-01-15T14:43:53;10.27;;;5.50;;
5833;SDS011;2943;48.012;10.968;2024-01-15T14:46:22;8.60;;;4.73;;
5833;SDS011;2943;48.012;10.968;2024-01-15T14:48:49;5.70;;;4.50;;
5833;SDS011;2943;48.012;10.968;2024-01-15T14:51:15;7.43;;;5.10;;
5833;SDS011;2943;48.012;10.968;2024-01-15T14:53:44;8.60;;;5.40;;
5833;SDS011;2943;48.012;10.968;2024-01-15T14:56:11;8.10;;;5.80;;
5833;SDS011;2943;48.012;10.968;2024-01-15T14:58:38;6.97;;;5.17;;
5833;SDS011;2943;48.012;10.968;2024-01-15T15:01:05;6.70;;;4.67;;